Time;durP1;ratioP1;P1;durP2;ratioP2;P2;SDS_P1;SDS_P2;PMS_P1;PMS_P2;Temp;Humidity;BMP_temperature;BMP_pressure;BME280_temperature;BME280_humidity;BME280_pressure;Samples;Min_cycle;Max_cycle;Signal;HPM_P1;HPM_P2
2021/11/06 00:00:20;;;;;;;19.13;7.93;;;;;;;-145.69;100.00;73581.88;5073775;28;20254;-79
2021/11/06 00:02:49;;;;;;;17.30;7.97;;;;;;;-145.69;100.00;73599.81;5073397;28;20294;-78
2021/11/06 00:05:18;;;;;;;18.23;8.33;;;;;;;-145.69;100.00;73615.72;5073190;28;20657;-79
2021/11/06 00:07:53;;;;;;;19.90;8.70;;;;;;;-145.69;100.00;73625.69;5073912;28;20654;-78
2021/11/06 00:10:22;;;;;;;20.53;8.37;;;;;;;-145.69;100.00;73641.63;5073484;28;20194;-79
2021/11/06 00:12:49;;;;;;;19.37;8.53;;;;;;;-145.69;100.00;73653.56;5073410;28;20209;-78
2021/11/06 00:15:16;;;;;;;19.60;8.13;;;;;;;-145.69;100.00;73663.53;5073473;28;20281;-78
2021/11/06 00:17:42;;;;;;;16.80;7.40;;;;;;;-145.69;100.00;73663.53;5073530;28;20201;-79
2021/11/06 00:20:11;;;;;;;20.50;8.10;;;;;;;-145.69;100.00;73683.44;5073270;28;20226;-78
2021/11/06 00:22:41;;;;;;;19.17;7.90;;;;;;;-145.69;100.00;73671.47;5073150;28;20650;-78
2021/11/06 00:25:10;;;;;;;16.97;7.80;;;;;;;-145.69;100.00;73691.38;5073401;28;20209;-78
2021/11/06 00:27:37;;;;;;;19.43;7.97;;;;;;;-145.69;100.00;73679.44;5073189;28;20658;-78
2021/11/06 00:30:06;;;;;;;20.23;7.77;;;;;;;-145.69;100.00;73693.38;5073108;28;20199;-77
2021/11/06 00:32:36;;;;;;;17.77;8.23;;;;;;;-145.69;100.00;73701.34;5073032;28;20210;-78
2021/11/06 00:35:02;;;;;;;25.30;9.77;;;;;;;-145.69;100.00;73675.47;5073261;28;20202;-78
2021/11/06 00:37:29;;;;;;;23.97;9.23;;;;;;;-145.69;100.00;73667.50;5073102;28;20683;-77
2021/11/06 00:39:57;;;;;;;20.60;8.93;;;;;;;-145.69;100.00;73687.41;5072998;28;20660;-78
2021/11/06 00:42:23;;;;;;;18.93;8.60;;;;;;;-145.69;100.00;73691.38;5072761;28;20238;-77
2021/11/06 00:44:52;;;;;;;18.67;8.03;;;;;;;-145.69;100.00;73683.44;5072954;28;20235;-77
2021/11/06 00:47:21;;;;;;;23.10;8.93;;;;;;;-145.69;100.00;73683.44;5072140;28;20561;-77
2021/11/06 00:49:48;;;;;;;21.57;9.00;;;;;;;-145.69;100.00;73691.38;5073308;28;20206;-77
2021/11/06 00:52:14;;;;;;;27.97;9.23;;;;;;;-145.69;100.00;73683.44;5073183;28;20412;-79
2021/11/06 00:54:41;;;;;;;22.37;9.07;;;;;;;-145.69;100.00;73703.34;5073591;28;20208;-78
2021/11/06 00:57:09;;;;;;;19.77;8.07;;;;;;;-145.69;100.00;73699.34;5073138;28;20199;-78
2021/11/06 00:59:36;;;;;;;20.67;8.73;;;;;;;-145.69;100.00;73715.28;5073562;28;20198;-78
2021/11/06 01:02:02;;;;;;;19.70;7.90;;;;;;;-145.69;100.00;73723.25;5073321;28;20226;-79
2021/11/06 01:04:29;;;;;;;23.13;8.20;;;;;;;-145.69;100.00;73705.34;5072793;28;20198;-78
2021/11/06 01:06:56;;;;;;;28.07;9.77;;;;;;;-145.69;100.00;73687.41;5073517;28;20241;-78
2021/11/06 01:09:22;;;;;;;27.33;9.80;;;;;;;-145.69;100.00;73675.47;5072767;28;20281;-78
2021/11/06 01:11:49;;;;;;;24.00;9.37;;;;;;;-145.69;100.00;73683.44;5073422;28;20268;-77
2021/11/06 01:14:17;;;;;;;27.37;8.87;;;;;;;-145.69;100.00;73697.38;5072880;28;20214;-78
2021/11/06 01:16:44;;;;;;;22.40;8.90;;;;;;;-145.69;100.00;73707.31;5073014;28;20202;-78
2021/11/06 01:19:10;;;;;;;35.08;14.52;;;;;;;-145.69;100.00;73695.38;5072175;28;20445;-78
2021/11/06 01:21:37;;;;;;;28.00;10.37;;;;;;;-145.69;100.00;73695.38;5073156;28;20227;-78
2021/11/06 01:24:05;;;;;;;25.83;10.47;;;;;;;-145.69;100.00;73699.34;5073025;28;20297;-78
2021/11/06 01:26:31;;;;;;;23.27;9.33;;;;;;;-145.69;100.00;73723.25;5072894;28;20195;-78
2021/11/06 01:28:58;;;;;;;20.23;8.87;;;;;;;-145.69;100.00;73731.22;5073097;28;20220;-78
2021/11/06 01:31:27;;;;;;;26.10;9.20;;;;;;;-145.69;100.00;73727.22;5072705;28;20202;-78
2021/11/06 01:33:54;;;;;;;37.17;11.80;;;;;;;-145.69;100.00;73693.38;5072637;28;20276;-78
2021/11/06 01:36:20;;;;;;;34.07;12.83;;;;;;;-145.69;100.00;73675.47;5073112;28;20195;-78
2021/11/06 01:38:47;;;;;;;31.73;11.03;;;;;;;-145.69;100.00;73689.41;5072766;28;20206;-78
2021/11/06 01:41:13;;;;;;;29.00;11.00;;;;;;;-145.69;100.00;73695.38;5072779;28;20234;-78
2021/11/06 01:43:41;;;;;;;33.80;11.43;;;;;;;-145.69;100.00;73687.41;5072608;28;20199;-78
2021/11/06 01:46:10;;;;;;;31.07;11.77;;;;;;;-145.69;100.00;73689.41;5072592;28;20654;-79
2021/11/06 01:48:37;;;;;;;33.40;11.60;;;;;;;-145.69;100.00;73699.34;5072802;28;20657;-78
2021/11/06 01:51:05;;;;;;;35.43;11.57;;;;;;;-145.69;100.00;73695.38;5072735;28;20562;-78
2021/11/06 01:53:32;;;;;;;34.20;11.90;;;;;;;-145.69;100.00;73693.38;5072283;28;20242;-78
2021/11/06 01:56:00;;;;;;;33.83;11.30;;;;;;;-145.69;100.00;73691.38;5072867;28;20207;-79
2021/11/06 01:58:28;;;;;;;35.10;12.07;;;;;;;-145.69;100.00;73691.38;5074471;28;20199;-78
2021/11/06 02:00:55;;;;;;;35.53;12.97;;;;;;;-145.69;100.00;73683.44;5076010;28;20624;-79
2021/11/06 02:03:22;;;;;;;40.57;13.03;;;;;;;-145.69;100.00;73679.44;5076401;28;20194;-78
2021/11/06 02:05:50;;;;;;;43.33;13.37;;;;;;;-145.69;100.00;73663.53;5076262;28;20646;-79
2021/11/06 02:08:17;;;;;;;34.07;12.23;;;;;;;-145.69;100.00;73675.47;5075924;28;20214;-79
2021/11/06 02:10:45;;;;;;;34.10;11.07;;;;;;;-145.69;100.00;73699.34;5076276;28;20763;-79
2021/11/06 02:13:12;;;;;;;29.63;10.43;;;;;;;-145.69;100.00;73713.28;5076075;28;20210;-78
2021/11/06 02:15:39;;;;;;;42.70;16.05;;;;;;;-145.69;100.00;73693.38;5075620;28;20534;-78
2021/11/06 02:18:07;;;;;;;37.87;12.60;;;;;;;-145.69;100.00;73693.38;5076278;28;20234;-78
2021/11/06 02:20:34;;;;;;;38.40;13.37;;;;;;;-145.69;100.00;73663.53;5075975;28;20203;-78
2021/11/06 02:23:02;;;;;;;37.63;13.80;;;;;;;-145.69;100.00;73659.53;5075978;28;20693;-78
2021/11/06 02:25:28;;;;;;;39.70;13.17;;;;;;;-145.69;100.00;73673.47;5075902;28;20201;-78
2021/11/06 02:27:55;;;;;;;33.43;11.70;;;;;;;-145.69;100.00;73691.38;5075381;28;20206;-77
2021/11/06 02:30:22;;;;;;;27.33;9.70;;;;;;;-145.69;100.00;73725.25;5075811;28;20234;-78
2021/11/06 02:32:51;;;;;;;27.27;9.13;;;;;;;-145.69;100.00;73739.19;5075390;28;20218;-78
2021/11/06 02:35:17;;;;;;;28.53;10.90;;;;;;;-145.69;100.00;73743.16;5075713;28;20214;-78
2021/11/06 02:37:44;;;;;;;27.10;10.07;;;;;;;-145.69;100.00;73747.13;5075594;28;20233;-78
2021/11/06 02:40:13;;;;;;;26.57;9.63;;;;;;;-145.69;100.00;73775.00;5075551;28;20680;-78
2021/11/06 02:42:41;;;;;;;24.50;9.97;;;;;;;-145.69;100.00;73771.03;5075228;28;20250;-78
2021/11/06 02:45:10;;;;;;;34.27;10.77;;;;;;;-145.69;100.00;73765.06;5075222;28;20218;-78
2021/11/06 02:47:36;;;;;;;35.73;12.43;;;;;;;-145.69;100.00;73753.13;5075327;28;20315;-78
2021/11/06 02:50:04;;;;;;;34.53;11.00;;;;;;;-145.69;100.00;73755.09;5075482;28;20210;-79
2021/11/06 02:52:31;;;;;;;38.27;11.67;;;;;;;-145.69;100.00;73749.13;5074904;28;20636;-78
2021/11/06 02:54:57;;;;;;;31.67;11.83;;;;;;;-145.69;100.00;73739.19;5075164;28;20427;-78
2021/11/06 02:57:25;;;;;;;35.73;12.30;;;;;;;-145.69;100.00;73743.16;5075424;28;20202;-78
2021/11/06 02:59:54;;;;;;;35.47;11.77;;;;;;;-145.69;100.00;73759.09;5075387;28;20203;-78
2021/11/06 03:02:21;;;;;;;36.13;11.40;;;;;;;-145.69;100.00;73743.16;5075253;28;20230;-78
2021/11/06 03:04:47;;;;;;;37.77;12.30;;;;;;;-145.69;100.00;73731.22;5074732;28;20202;-78
2021/11/06 03:07:14;;;;;;;37.03;11.90;;;;;;;-145.69;100.00;73739.19;5075151;28;20666;-78
2021/11/06 03:09:42;;;;;;;41.90;13.30;;;;;;;-145.69;100.00;73731.22;5073735;28;20203;-78
2021/11/06 03:12:10;;;;;;;45.07;13.87;;;;;;;-145.69;100.00;73731.22;5074687;28;20203;-78
2021/11/06 03:14:39;;;;;;;39.83;12.97;;;;;;;-145.69;100.00;73741.16;5075004;28;20214;-78
2021/11/06 03:17:05;;;;;;;31.27;10.87;;;;;;;-145.69;100.00;73763.06;5074862;28;20195;-78
2021/11/06 03:19:32;;;;;;;33.40;12.23;;;;;;;-145.69;100.00;73767.06;5074832;28;20202;-78
2021/11/06 03:21:59;;;;;;;34.27;12.43;;;;;;;-145.69;100.00;73779.00;5074283;28;20226;-77
2021/11/06 03:24:25;;;;;;;31.93;10.60;;;;;;;-145.69;100.00;73761.06;5074845;28;20194;-77
2021/11/06 03:26:52;;;;;;;33.33;12.23;;;;;;;-145.69;100.00;73782.97;5074409;28;20206;-78
2021/11/06 03:29:18;;;;;;;39.20;12.47;;;;;;;-145.69;100.00;73779.00;5074377;28;20654;-77
2021/11/06 03:31:46;;;;;;;40.80;12.50;;;;;;;-145.69;100.00;73775.00;5074680;28;20264;-77
2021/11/06 03:34:13;;;;;;;42.83;12.57;;;;;;;-145.69;100.00;73777.00;5074663;28;20207;-77
2021/11/06 03:36:39;;;;;;;33.63;11.40;;;;;;;-145.69;100.00;73790.94;5074349;28;20207;-77
2021/11/06 03:39:06;;;;;;;41.73;12.57;;;;;;;-145.69;100.00;73792.94;5074509;28;20226;-78
2021/11/06 03:41:33;;;;;;;43.33;13.63;;;;;;;-145.69;100.00;73784.97;5073938;28;20229;-78
2021/11/06 03:43:59;;;;;;;51.13;13.53;;;;;;;-145.69;100.00;73771.03;5074451;28;20195;-78
2021/11/06 03:46:26;;;;;;;42.93;12.17;;;;;;;-145.69;100.00;73796.91;5073932;28;20195;-78
2021/11/06 03:48:54;;;;;;;29.70;9.97;;;;;;;-145.69;100.00;73828.78;5074227;28;20200;-78
2021/11/06 03:51:21;;;;;;;38.13;12.53;;;;;;;-145.69;100.00;73834.75;5074393;28;20203;-78
2021/11/06 03:53:48;;;;;;;31.93;10.73;;;;;;;-145.69;100.00;73838.72;5074061;28;20712;-78
2021/11/06 03:56:14;;;;;;;36.50;12.60;;;;;;;-145.69;100.00;73830.75;5073874;28;20210;-78
2021/11/06 03:58:41;;;;;;;40.20;11.33;;;;;;;-145.69;100.00;73814.84;5074131;28;20202;-77
2021/11/06 04:01:07;;;;;;;40.47;12.43;;;;;;;-145.69;100.00;73802.88;5073685;28;20210;-78
2021/11/06 04:03:34;;;;;;;41.27;11.93;;;;;;;-145.69;100.00;73812.84;5073450;28;20230;-78
2021/11/06 04:06:02;;;;;;;49.50;13.50;;;;;;;-145.69;100.00;73810.84;5073770;28;20680;-78
2021/11/06 04:08:29;;;;;;;51.20;13.50;;;;;;;-145.69;100.00;73790.94;5073812;28;20253;-78
2021/11/06 04:10:58;;;;;;;40.10;13.20;;;;;;;-145.69;100.00;73784.97;5073980;28;20195;-78
2021/11/06 04:13:25;;;;;;;49.33;13.53;;;;;;;-145.69;100.00;73786.97;5073570;28;20718;-77
2021/11/06 04:15:51;;;;;;;42.13;13.50;;;;;;;-145.69;100.00;73798.91;5073787;28;20198;-78
2021/11/06 04:18:18;;;;;;;40.93;12.70;;;;;;;-145.69;100.00;73806.88;5073354;28;20207;-77
2021/11/06 04:20:45;;;;;;;35.13;11.57;;;;;;;-145.69;100.00;73830.75;5073696;28;20198;-77
2021/11/06 04:23:13;;;;;;;35.50;11.33;;;;;;;-145.69;100.00;73830.75;5073532;28;20237;-77
2021/11/06 04:25:39;;;;;;;36.37;12.23;;;;;;;-145.69;100.00;73850.69;5073356;28;20199;-78
2021/11/06 04:28:06;;;;;;;28.87;11.23;;;;;;;-145.69;100.00;73854.66;5073602;28;20199;-77
2021/11/06 04:30:33;;;;;;;36.03;11.37;;;;;;;-145.69;100.00;73858.63;5073454;28;20203;-79
2021/11/06 04:32:59;;;;;;;33.73;10.53;;;;;;;-145.69;100.00;73882.53;5073103;28;20209;-78
2021/11/06 04:35:26;;;;;;;28.63;10.83;;;;;;;-145.69;100.00;73894.47;5073344;28;20608;-78
2021/11/06 04:37:52;;;;;;;41.63;11.63;;;;;;;-145.69;100.00;73862.63;5073238;28;20684;-77
2021/11/06 04:40:20;;;;;;;37.57;11.20;;;;;;;-145.69;100.00;73874.56;5072770;28;20572;-77
2021/11/06 04:42:47;;;;;;;47.80;12.63;;;;;;;-145.69;100.00;73850.69;5073255;28;20624;-77
2021/11/06 04:45:14;;;;;;;49.50;12.97;;;;;;;-145.69;100.00;73846.69;5073128;28;20199;-77
2021/11/06 04:47:41;;;;;;;41.50;12.93;;;;;;;-145.69;100.00;73838.72;5073220;28;20198;-77
2021/11/06 04:50:10;;;;;;;52.27;13.50;;;;;;;-145.69;100.00;73822.81;5073079;28;20194;-77
2021/11/06 04:52:37;;;;;;;38.80;12.47;;;;;;;-145.69;100.00;73848.69;5073191;28;20230;-78
2021/11/06 04:55:07;;;;;;;39.47;12.03;;;;;;;-145.69;100.00;73866.59;5073239;28;20209;-77
2021/11/06 04:57:35;;;;;;;38.70;12.07;;;;;;;-145.69;100.00;73872.56;5073402;28;20226;-78
2021/11/06 05:00:01;;;;;;;44.17;12.63;;;;;;;-145.69;100.00;73876.56;5073163;28;20203;-77
2021/11/06 05:02:28;;;;;;;38.10;11.00;;;;;;;-145.69;100.00;73888.50;5072859;28;20238;-77
2021/11/06 05:04:57;;;;;;;32.13;10.47;;;;;;;-145.69;100.00;73890.50;5072506;28;20641;-77
2021/11/06 05:07:24;;;;;;;41.27;11.93;;;;;;;-145.69;100.00;73880.53;5073215;28;20202;-77
2021/11/06 05:09:55;;;;;;;43.73;12.63;;;;;;;-145.69;100.00;73872.56;5073033;28;20194;-77
2021/11/06 05:12:22;;;;;;;36.30;11.33;;;;;;;-145.69;100.00;73876.56;5072776;28;20202;-77
2021/11/06 05:14:51;;;;;;;45.67;13.47;;;;;;;-145.69;100.00;73866.59;5072870;28;20665;-77
2021/11/06 05:17:19;;;;;;;41.93;11.90;;;;;;;-145.69;100.00;73870.59;5073040;28;20278;-77
2021/11/06 05:19:46;;;;;;;46.73;12.23;;;;;;;-145.69;100.00;73878.56;5072906;28;20202;-77
2021/11/06 05:22:12;;;;;;;39.33;12.40;;;;;;;-145.69;100.00;73884.53;5072701;28;20305;-77
2021/11/06 05:24:39;;;;;;;34.13;12.43;;;;;;;-145.69;100.00;73884.53;5072710;28;20203;-77
2021/11/06 05:27:07;;;;;;;37.67;11.27;;;;;;;-145.69;100.00;73890.50;5072608;28;20657;-78
2021/11/06 05:29:33;;;;;;;39.33;10.47;;;;;;;-145.69;100.00;73896.47;5072675;28;20203;-77
2021/11/06 05:32:01;;;;;;;37.07;12.27;;;;;;;-145.69;100.00;73902.44;5072532;28;20719;-77
2021/11/06 05:34:28;;;;;;;36.10;11.17;;;;;;;-145.69;100.00;73910.41;5076340;28;20203;-77
2021/11/06 05:36:54;;;;;;;42.40;11.70;;;;;;;-145.69;100.00;73908.41;5076634;28;20203;-77
2021/11/06 05:39:21;;;;;;;45.43;12.90;;;;;;;-145.69;100.00;73902.44;5076270;28;20256;-77
2021/11/06 05:41:48;;;;;;;29.43;9.97;;;;;;;-145.69;100.00;73930.31;5076341;28;20202;-77
2021/11/06 05:44:14;;;;;;;37.33;11.80;;;;;;;-145.69;100.00;73958.19;5076647;28;20199;-77
2021/11/06 05:46:42;;;;;;;32.80;11.20;;;;;;;-145.69;100.00;73962.19;5076092;28;20868;-77
2021/11/06 05:49:10;;;;;;;34.90;10.27;;;;;;;-145.69;100.00;73966.16;5076391;28;20253;-77
2021/11/06 05:51:37;;;;;;;30.23;10.23;;;;;;;-145.69;100.00;73972.13;5076086;28;20213;-77
2021/11/06 05:54:03;;;;;;;29.10;10.03;;;;;;;-145.69;100.00;73988.06;5076133;28;20558;-77
2021/11/06 05:56:30;;;;;;;34.33;11.57;;;;;;;-145.69;100.00;73986.06;5076603;28;20240;-77
2021/11/06 05:58:56;;;;;;;36.87;11.37;;;;;;;-145.69;100.00;73948.25;5076371;28;20217;-77
2021/11/06 06:01:23;;;;;;;32.53;10.00;;;;;;;-145.69;100.00;73970.16;5076054;28;20210;-77
2021/11/06 06:03:49;;;;;;;33.90;11.00;;;;;;;-145.69;100.00;73982.09;5076122;28;20230;-77
2021/11/06 06:06:17;;;;;;;35.30;10.53;;;;;;;-145.69;100.00;73984.09;5075518;28;20202;-77
2021/11/06 06:08:46;;;;;;;36.07;11.03;;;;;;;-145.69;100.00;73986.06;5075718;28;20676;-77
2021/11/06 06:11:12;;;;;;;38.47;11.33;;;;;;;-145.69;100.00;73990.06;5075906;28;20203;-77
2021/11/06 06:13:39;;;;;;;34.93;11.20;;;;;;;-145.69;100.00;73992.03;5076193;28;20198;-77
2021/11/06 06:16:05;;;;;;;50.60;12.57;;;;;;;-145.69;100.00;73966.16;5075557;28;20195;-78
2021/11/06 06:18:32;;;;;;;50.83;13.27;;;;;;;-145.69;100.00;73936.28;5075882;28;20248;-77
2021/11/06 06:20:58;;;;;;;60.67;14.70;;;;;;;-145.69;100.00;73908.41;5075875;28;20210;-78
2021/11/06 06:23:26;;;;;;;58.20;13.73;;;;;;;-145.69;100.00;73922.34;5075370;28;20222;-77
2021/11/06 06:25:53;;;;;;;50.50;14.20;;;;;;;-145.69;100.00;73944.25;5075791;28;20194;-77
2021/11/06 06:28:19;;;;;;;46.73;13.60;;;;;;;-145.69;100.00;73950.22;5075466;28;20268;-77
2021/11/06 06:30:45;;;;;;;47.03;13.10;;;;;;;-145.69;100.00;73958.19;5075646;28;20199;-77
2021/11/06 06:33:12;;;;;;;59.30;14.23;;;;;;;-145.69;100.00;73942.25;5075262;28;20256;-77
2021/11/06 06:35:39;;;;;;;46.80;13.97;;;;;;;-145.69;100.00;73956.19;5074945;28;20199;-77
2021/11/06 06:38:05;;;;;;;41.00;12.50;;;;;;;-145.69;100.00;73970.16;5075181;28;20657;-77
2021/11/06 06:40:33;;;;;;;46.77;14.00;;;;;;;-145.69;100.00;73960.19;5075463;28;20206;-77
2021/11/06 06:42:59;;;;;;;50.03;13.67;;;;;;;-145.69;100.00;73946.25;5074864;28;20238;-77
2021/11/06 06:45:26;;;;;;;64.00;15.60;;;;;;;-145.69;100.00;73922.34;5074705;28;20607;-77
2021/11/06 06:47:53;;;;;;;55.27;15.33;;;;;;;-145.69;100.00;73944.25;5075042;28;20545;-77
2021/11/06 06:50:20;;;;;;;54.50;14.17;;;;;;;-145.69;100.00;73950.22;5075041;28;20253;-77
2021/11/06 06:52:47;;;;;;;50.57;13.27;;;;;;;-145.69;100.00;73942.25;5075045;28;20291;-77
2021/11/06 06:55:13;;;;;;;67.43;16.60;;;;;;;-145.69;100.00;73918.38;5074838;28;20229;-77
2021/11/06 06:57:42;;;;;;;77.60;17.77;;;;;;;-145.69;100.00;73898.47;5075056;28;20206;-77
2021/11/06 07:00:10;;;;;;;76.10;16.83;;;;;;;-145.69;100.00;73902.44;5075135;28;20556;-77
2021/11/06 07:02:37;;;;;;;64.17;16.37;;;;;;;-145.69;100.00;73904.44;5074527;28;20581;-78
2021/11/06 07:05:04;;;;;;;53.97;14.77;;;;;;;-145.69;100.00;73914.38;5074811;28;20761;-76
2021/11/06 07:07:30;;;;;;;60.80;15.43;;;;;;;-145.69;100.00;73916.38;5075078;28;20199;-76
2021/11/06 07:09:57;;;;;;;63.70;15.97;;;;;;;-145.69;100.00;73914.38;5073764;28;20589;-77
2021/11/06 07:12:26;;;;;;;68.80;17.50;;;;;;;-145.69;100.00;73912.41;5074976;28;20206;-77
2021/11/06 07:14:54;;;;;;;58.93;15.53;;;;;;;-145.69;100.00;73894.47;5074859;28;20203;-77
2021/11/06 07:17:20;;;;;;;71.47;16.80;;;;;;;-145.69;100.00;73904.44;5074140;28;20198;-77
2021/11/06 07:19:46;;;;;;;49.97;14.80;;;;;;;-145.69;100.00;73912.41;5074691;28;20209;-77
2021/11/06 07:22:13;;;;;;;60.83;15.23;;;;;;;-145.69;100.00;73918.38;5074824;28;20199;-77
2021/11/06 07:24:39;;;;;;;60.97;16.23;;;;;;;-145.69;100.00;73918.38;5074475;28;20287;-77
2021/11/06 07:27:08;;;;;;;57.73;14.50;;;;;;;-145.69;100.00;73924.34;5074265;28;20260;-77
2021/11/06 07:29:35;;;;;;;57.67;14.97;;;;;;;-145.69;100.00;73932.31;5074356;28;20195;-77
2021/11/06 07:32:03;;;;;;;46.40;12.93;;;;;;;-145.69;100.00;73930.31;5073860;28;20593;-78
2021/11/06 07:34:30;;;;;;;58.60;14.67;;;;;;;-145.69;100.00;73910.41;5074043;28;20653;-77
2021/11/06 07:36:57;;;;;;;47.83;13.30;;;;;;;-145.69;100.00;73910.41;5073902;28;20194;-78
2021/11/06 07:39:26;;;;;;;55.73;14.23;;;;;;;-145.69;100.00;73902.44;5074304;28;20199;-77
2021/11/06 07:41:52;;;;;;;54.27;14.27;;;;;;;-145.69;100.00;73894.47;5074342;28;20207;-77
2021/11/06 07:44:19;;;;;;;46.60;13.47;;;;;;;-145.69;100.00;73890.50;5074226;28;20700;-78
2021/11/06 07:46:45;;;;;;;52.73;14.23;;;;;;;-145.69;100.00;73882.53;5074243;28;20206;-78
2021/11/06 07:49:13;;;;;;;43.03;13.47;;;;;;;-145.69;100.00;73870.59;5074396;28;20206;-77
2021/11/06 07:51:39;;;;;;;48.17;13.47;;;;;;;-145.69;100.00;73870.59;5074525;28;20259;-77
2021/11/06 07:54:06;;;;;;;61.97;14.23;;;;;;;-145.69;100.00;73862.63;5073818;28;20231;-77
2021/11/06 07:56:34;;;;;;;62.20;14.97;;;;;;;-145.69;100.00;73838.72;5073500;28;20206;-78
2021/11/06 07:59:01;;;;;;;62.20;15.13;;;;;;;-145.69;100.00;73818.81;5074097;28;20249;-78
2021/11/06 08:01:27;;;;;;;63.53;15.50;;;;;;;-145.69;100.00;73810.84;5073852;28;20680;-78
2021/11/06 08:03:54;;;;;;;84.07;17.80;;;;;;;-145.69;100.00;73788.94;5073630;28;20699;-78
2021/11/06 08:06:21;;;;;;;61.03;15.90;;;;;;;-145.69;100.00;73788.94;5074100;28;20210;-77
2021/11/06 08:08:48;;;;;;;59.83;15.93;;;;;;;-145.69;100.00;73782.97;5073727;28;20248;-77
2021/11/06 08:11:15;;;;;;;51.97;14.00;;;;;;;-145.69;100.00;73771.03;5073706;28;20202;-78
2021/11/06 08:13:41;;;;;;;67.47;17.00;;;;;;;-145.69;100.00;73757.09;5073502;28;20207;-77
2021/11/06 08:16:10;;;;;;;65.03;16.00;;;;;;;-145.69;100.00;73747.13;5073796;28;20232;-77
2021/11/06 08:18:37;;;;;;;64.20;16.40;;;;;;;-145.69;100.00;73737.19;5073837;28;20209;-77
2021/11/06 08:21:03;;;;;;;61.97;16.50;;;;;;;-145.69;100.00;73727.22;5073743;28;20206;-77
2021/11/06 08:23:31;;;;;;;63.40;21.47;;;;;;;-145.69;100.00;73723.25;5073075;28;20276;-78
2021/11/06 08:26:01;;;;;;;96.70;28.40;;;;;;;-145.69;100.00;73711.31;5073465;28;20608;-78
2021/11/06 08:28:27;;;;;;;75.23;18.97;;;;;;;-145.69;100.00;73687.41;5073650;28;20209;-77
2021/11/06 08:30:56;;;;;;;63.90;17.63;;;;;;;-145.69;100.00;73677.47;5073195;28;20205;-78
2021/11/06 08:33:23;;;;;;;70.93;17.03;;;;;;;-145.69;100.00;73661.53;5073496;28;20234;-77
2021/11/06 08:35:49;;;;;;;82.43;18.80;;;;;;;-145.69;100.00;73641.63;5073374;28;20205;-78
2021/11/06 08:38:16;;;;;;;75.83;17.43;;;;;;;-145.69;100.00;73633.66;5073069;28;20288;-77
2021/11/06 08:40:44;;;;;;;80.50;18.60;;;;;;;-145.69;100.00;73615.72;5073014;28;20214;-78
2021/11/06 08:43:11;;;;;;;92.03;19.00;;;;;;;-145.69;100.00;73605.78;5073260;28;20744;-79
2021/11/06 08:45:38;;;;;;;90.53;18.87;;;;;;;-145.69;100.00;73591.84;5073335;28;20207;-78
2021/11/06 08:48:05;;;;;;;81.87;18.67;;;;;;;-145.69;100.00;73579.91;5072812;28;20206;-78
2021/11/06 08:50:32;;;;;;;76.43;17.60;;;;;;;-145.69;100.00;73560.00;5073284;28;20206;-78
2021/11/06 08:52:59;;;;;;;98.67;20.33;;;;;;;-145.69;100.00;73528.13;5062319;28;20242;-77
2021/11/06 08:55:26;;;;;;;94.07;20.40;;;;;;;-145.69;100.00;73516.19;5053069;28;20199;-78
2021/11/06 08:57:55;;;;;;;96.10;21.50;;;;;;;-145.69;100.00;73486.31;5053140;28;20257;-78
2021/11/06 09:00:26;;;;;;;88.13;20.87;;;;;;;-145.69;100.00;73472.38;5053108;28;20209;-76
2021/11/06 09:02:55;;;;;;;81.83;19.93;;;;;;;-145.69;100.00;73462.44;5052981;28;20195;-78
2021/11/06 09:05:22;;;;;;;84.10;19.43;;;;;;;-145.69;100.00;73432.56;5053000;28;20230;-79
2021/11/06 09:07:49;;;;;;;72.93;21.13;;;;;;;-145.69;100.00;73428.59;5053973;28;20536;-78
2021/11/06 09:10:18;;;;;;;67.40;17.57;;;;;;;-145.69;100.00;73418.63;5057083;28;20654;-79
2021/11/06 09:12:44;;;;;;;59.03;18.73;;;;;;;-145.69;100.00;73410.66;5057072;28;20300;-78
2021/11/06 09:15:12;;;;;;;57.70;17.50;;;;;;;-145.69;100.00;73414.66;5056889;28;20555;-79
2021/11/06 09:17:39;;;;;;;46.07;16.87;;;;;;;-145.69;100.00;73422.63;5056866;28;20200;-79
2021/11/06 09:20:07;;;;;;;40.70;16.67;;;;;;;-145.69;100.00;73416.66;5074073;28;20194;-79
2021/11/06 09:22:35;;;;;;;41.33;16.43;;;;;;;-145.69;100.00;73418.63;5076655;28;20550;-79
2021/11/06 09:25:02;;;;;;;37.33;16.53;;;;;;;-145.69;100.00;73418.63;5076846;28;20241;-79
2021/11/06 09:27:28;;;;;;;40.43;16.20;;;;;;;-145.69;100.00;73422.63;5076783;28;20194;-79
2021/11/06 09:29:55;;;;;;;31.10;14.63;;;;;;;-145.69;100.00;73428.59;5076513;28;20653;-79
2021/11/06 09:32:25;;;;;;;31.67;14.00;;;;;;;-145.69;100.00;73426.59;5076654;28;20195;-79
2021/11/06 09:34:52;;;;;;;33.17;15.27;;;;;;;-145.69;100.00;73432.56;5076860;28;20203;-78
2021/11/06 09:37:19;;;;;;;29.17;13.90;;;;;;;-145.69;100.00;73428.59;5076897;28;20199;-77
2021/11/06 09:39:46;;;;;;;32.60;14.70;;;;;;;-145.69;100.00;73428.59;5076930;28;20202;-77
2021/11/06 09:42:12;;;;;;;31.27;14.50;;;;;;;-145.69;100.00;73410.66;5076352;28;20209;-77
2021/11/06 09:44:42;;;;;;;31.50;14.57;;;;;;;-145.69;100.00;73382.81;5076429;28;20226;-77
2021/11/06 09:47:12;;;;;;;29.97;14.33;;;;;;;-145.69;100.00;73390.75;5076266;28;20202;-77
2021/11/06 09:49:40;;;;;;;31.73;13.03;;;;;;;-145.69;100.00;73392.75;5076539;28;20264;-78
2021/11/06 09:52:08;;;;;;;27.30;13.10;;;;;;;-145.69;100.00;73400.72;5076270;28;20240;-78
2021/11/06 09:54:35;;;;;;;29.50;14.07;;;;;;;-145.69;100.00;73388.78;5076670;28;20256;-78
2021/11/06 09:57:01;;;;;;;26.63;13.97;;;;;;;-145.69;100.00;73382.81;5076186;28;20673;-77
2021/11/06 09:59:35;;;;;;;23.53;11.37;;;;;;;-145.69;100.00;73390.75;5076174;28;20207;-78
2021/11/06 10:02:04;;;;;;;23.80;12.27;;;;;;;-145.69;100.00;73380.81;5075985;28;20558;-78
2021/11/06 10:04:31;;;;;;;24.37;12.07;;;;;;;-145.69;100.00;73378.81;5076142;28;20227;-80
2021/11/06 10:06:59;;;;;;;28.23;13.07;;;;;;;-145.69;100.00;73366.88;5075263;28;20217;-77
2021/11/06 10:09:26;;;;;;;24.87;13.33;;;;;;;-145.69;100.00;73342.97;5076006;28;20207;-77
2021/11/06 10:11:55;;;;;;;27.20;13.55;;;;;;;-145.69;100.00;73325.06;5075308;28;20976;-81
2021/11/06 10:14:24;;;;;;;22.07;11.57;;;;;;;-145.69;100.00;73309.13;5075737;28;20209;-79
2021/11/06 10:16:55;;;;;;;24.33;12.23;;;;;;;-145.69;100.00;73287.25;5076042;28;20272;-78
2021/11/06 10:19:27;;;;;;;27.33;13.97;;;;;;;-145.69;100.00;73269.31;5075556;28;20591;-78
2021/11/06 10:22:08;;;;;;;28.50;13.40;;;;;;;-145.69;100.00;73257.38;5075801;28;20224;-79
2021/11/06 10:24:41;;;;;;;34.07;14.07;;;;;;;-145.69;100.00;73233.50;5075838;28;20593;-79
2021/11/06 10:27:17;;;;;;;26.93;13.87;;;;;;;-145.69;100.00;73225.53;5075575;28;20205;-79
2021/11/06 10:29:59;;;;;;;25.17;12.90;;;;;;;-145.69;100.00;73203.63;5075691;28;20194;-79
2021/11/06 10:32:26;;;;;;;28.60;12.90;;;;;;;-145.69;100.00;73161.81;5075625;28;20209;-80
2021/11/06 10:34:53;;;;;;;19.07;10.37;;;;;;;-145.69;100.00;73149.88;5075230;28;20202;-80
2021/11/06 10:37:23;;;;;;;17.13;9.40;;;;;;;-145.69;100.00;73135.94;5075331;28;20253;-80
2021/11/06 10:39:57;;;;;;;18.67;10.00;;;;;;;-145.69;100.00;73102.09;5075526;28;20199;-80
2021/11/06 10:42:24;;;;;;;22.20;11.53;;;;;;;-145.69;100.00;73076.22;5075395;28;20198;-80
2021/11/06 10:44:51;;;;;;;21.10;10.33;;;;;;;-145.69;100.00;73048.34;5075268;28;20230;-80
2021/11/06 10:47:17;;;;;;;19.20;9.57;;;;;;;-145.69;100.00;73018.50;5075107;28;20206;-79
2021/11/06 10:49:47;;;;;;;14.30;8.57;;;;;;;-145.69;100.00;73020.47;5075361;28;20543;-80
2021/11/06 10:52:17;;;;;;;16.80;8.87;;;;;;;-145.69;100.00;73036.41;5074965;28;20210;-79
2021/11/06 10:55:05;;;;;;;14.83;8.13;;;;;;;-145.69;100.00;73022.47;5074915;28;20260;-79